sensor_id;sensor_type;location;lat;lon;timestamp;pressure;altitude;pressure_sealevel;temperature;humidity
22566;BME280;11449;51.330;19.378;2022-08-11T00:01:54;100194.28;;;18.59;100.00
22566;BME280;11449;51.330;19.378;2022-08-11T00:06:55;100202.81;;;19.20;100.00
22566;BME280;11449;51.330;19.378;2022-08-11T00:11:59;100197.34;;;19.32;100.00
22566;BME280;11449;51.330;19.378;2022-08-11T00:17:03;100187.78;;;19.36;100.00
22566;BME280;11449;51.330;19.378;2022-08-11T00:22:05;100192.60;;;19.11;100.00
22566;BME280;11449;51.330;19.378;2022-08-11T00:27:07;100190.92;;;18.83;100.00
22566;BME280;11449;51.330;19.378;2022-08-11T00:32:11;100193.70;;;18.80;100.00
22566;BME280;11449;51.330;19.378;2022-08-11T00:37:19;100194.23;;;18.40;100.00
22566;BME280;11449;51.330;19.378;2022-08-11T01:04:55;100194.33;;;18.76;100.00
22566;BME280;11449;51.330;19.378;2022-08-11T01:15:32;100192.63;;;17.79;100.00
22566;BME280;11449;51.330;19.378;2022-08-11T01:41:31;100190.99;;;18.15;100.00
22566;BME280;11449;51.330;19.378;2022-08-11T01:46:38;100196.16;;;18.28;100.00
22566;BME280;11449;51.330;19.378;2022-08-11T01:57:53;100196.97;;;17.39;100.00
22566;BME280;11449;51.330;19.378;2022-08-11T02:13:06;100196.92;;;18.12;100.00
22566;BME280;11449;51.330;19.378;2022-08-11T02:23:17;100189.87;;;18.29;100.00
22566;BME280;11449;51.330;19.378;2022-08-11T02:34:46;100184.54;;;18.21;100.00
22566;BME280;11449;51.330;19.378;2022-08-11T02:39:11;100190.22;;;18.50;100.00
22566;BME280;11449;51.330;19.378;2022-08-11T03:00:11;100179.73;;;17.49;100.00
22566;BME280;11449;51.330;19.378;2022-08-11T03:05:22;100186.44;;;17.38;100.00
22566;BME280;11449;51.330;19.378;2022-08-11T03:10:24;100186.67;;;17.32;100.00
22566;BME280;11449;51.330;19.378;2022-08-11T03:15:28;100183.25;;;17.08;100.00
22566;BME280;11449;51.330;19.378;2022-08-11T03:21:20;100185.94;;;17.18;100.00
22566;BME280;11449;51.330;19.378;2022-08-11T03:53:01;100188.81;;;16.58;100.00
22566;BME280;11449;51.330;19.378;2022-08-11T04:08:54;100191.41;;;17.55;100.00
22566;BME280;11449;51.330;19.378;2022-08-11T04:14:24;100191.19;;;17.62;100.00
22566;BME280;11449;51.330;19.378;2022-08-11T04:19:51;100193.95;;;17.79;100.00
22566;BME280;11449;51.330;19.378;2022-08-11T04:24:57;100193.70;;;17.65;100.00
22566;BME280;11449;51.330;19.378;2022-08-11T04:30:12;100198.70;;;18.11;100.00
22566;BME280;11449;51.330;19.378;2022-08-11T04:35:41;100196.71;;;18.16;100.00
22566;BME280;11449;51.330;19.378;2022-08-11T04:56:49;100212.22;;;19.96;100.00
22566;BME280;11449;51.330;19.378;2022-08-11T05:08:28;100216.66;;;20.39;100.00
22566;BME280;11449;51.330;19.378;2022-08-11T05:13:33;100221.51;;;20.55;100.00
22566;BME280;11449;51.330;19.378;2022-08-11T05:18:55;100215.62;;;21.12;100.00
22566;BME280;11449;51.330;19.378;2022-08-11T05:24:22;100211.67;;;21.63;100.00
22566;BME280;11449;51.330;19.378;2022-08-11T05:29:47;100214.80;;;21.56;100.00
22566;BME280;11449;51.330;19.378;2022-08-11T05:35:08;100217.70;;;21.97;100.00
22566;BME280;11449;51.330;19.378;2022-08-11T05:40:12;100219.14;;;22.38;100.00
22566;BME280;11449;51.330;19.378;2022-08-11T05:45:33;100226.37;;;22.92;100.00
22566;BME280;11449;51.330;19.378;2022-08-11T05:50:56;100230.72;;;23.07;100.00
22566;BME280;11449;51.330;19.378;2022-08-11T05:56:17;100232.20;;;24.04;100.00
22566;BME280;11449;51.330;19.378;2022-08-11T06:01:24;100230.03;;;23.84;100.00
22566;BME280;11449;51.330;19.378;2022-08-11T06:06:27;100225.96;;;23.91;100.00
22566;BME280;11449;51.330;19.378;2022-08-11T06:11:29;100225.96;;;23.91;100.00
22566;BME280;11449;51.330;19.378;2022-08-11T06:16:33;100236.38;;;24.16;100.00
22566;BME280;11449;51.330;19.378;2022-08-11T06:21:35;100215.02;;;24.45;100.00
22566;BME280;11449;51.330;19.378;2022-08-11T06:26:40;100235.94;;;25.62;100.00
22566;BME280;11449;51.330;19.378;2022-08-11T06:31:41;100236.14;;;25.82;100.00
22566;BME280;11449;51.330;19.378;2022-08-11T06:36:59;100229.55;;;26.03;100.00
22566;BME280;11449;51.330;19.378;2022-08-11T06:47:11;100227.59;;;25.99;100.00
22566;BME280;11449;51.330;19.378;2022-08-11T06:52:12;100228.18;;;26.60;100.00
22566;BME280;11449;51.330;19.378;2022-08-11T06:57:17;100225.09;;;26.70;100.00
22566;BME280;11449;51.330;19.378;2022-08-11T07:02:44;100227.20;;;26.72;100.00
22566;BME280;11449;51.330;19.378;2022-08-11T07:13:42;100231.11;;;27.50;100.00
22566;BME280;11449;51.330;19.378;2022-08-11T07:19:05;100225.72;;;27.92;100.00
22566;BME280;11449;51.330;19.378;2022-08-11T07:24:28;100219.91;;;27.81;100.00
22566;BME280;11449;51.330;19.378;2022-08-11T07:29:50;100212.66;;;28.23;100.00
22566;BME280;11449;51.330;19.378;2022-08-11T07:35:17;100217.16;;;28.58;100.00
22566;BME280;11449;51.330;19.378;2022-08-11T07:40:23;100212.48;;;29.44;100.00
22566;BME280;11449;51.330;19.378;2022-08-11T07:45:25;100220.37;;;29.70;100.00
22566;BME280;11449;51.330;19.378;2022-08-11T07:50:46;100222.09;;;29.33;100.00
22566;BME280;11449;51.330;19.378;2022-08-11T07:56:06;100211.19;;;28.95;100.00
22566;BME280;11449;51.330;19.378;2022-08-11T08:01:10;100203.50;;;29.73;100.00
22566;BME280;11449;51.330;19.378;2022-08-11T08:06:31;100201.54;;;29.21;100.00
22566;BME280;11449;51.330;19.378;2022-08-11T08:11:51;100208.40;;;29.54;100.00
22566;BME280;11449;51.330;19.378;2022-08-11T08:17:11;100201.34;;;29.76;100.00
22566;BME280;11449;51.330;19.378;2022-08-11T08:22:33;100207.45;;;30.07;100.00
22566;BME280;11449;51.330;19.378;2022-08-11T08:27:35;100205.55;;;29.94;100.00
22566;BME280;11449;51.330;19.378;2022-08-11T08:32:39;100206.78;;;30.32;100.00
22566;BME280;11449;51.330;19.378;2022-08-11T08:37:41;100205.38;;;30.28;100.00
22566;BME280;11449;51.330;19.378;2022-08-11T08:42:46;100203.63;;;29.71;100.00
22566;BME280;11449;51.330;19.378;2022-08-11T08:47:51;100209.47;;;29.66;100.00
22566;BME280;11449;51.330;19.378;2022-08-11T08:52:59;100205.73;;;30.29;100.00
22566;BME280;11449;51.330;19.378;2022-08-11T08:58:01;100201.37;;;30.09;100.00
22566;BME280;11449;51.330;19.378;2022-08-11T09:03:02;100198.78;;;30.17;100.00
22566;BME280;11449;51.330;19.378;2022-08-11T09:08:04;100191.83;;;29.18;100.00
22566;BME280;11449;51.330;19.378;2022-08-11T09:13:06;100198.66;;;30.09;100.00
22566;BME280;11449;51.330;19.378;2022-08-11T09:18:10;100193.74;;;29.56;100.00
22566;BME280;11449;51.330;19.378;2022-08-11T09:23:12;100186.45;;;30.19;100.00
22566;BME280;11449;51.330;19.378;2022-08-11T09:28:34;100186.08;;;30.50;100.00
22566;BME280;11449;51.330;19.378;2022-08-11T09:33:37;100178.57;;;31.03;100.00
22566;BME280;11449;51.330;19.378;2022-08-11T09:38:40;100188.28;;;30.41;100.00
22566;BME280;11449;51.330;19.378;2022-08-11T09:44:00;100174.91;;;28.42;100.00
22566;BME280;11449;51.330;19.378;2022-08-11T09:49:21;100177.57;;;28.48;100.00
22566;BME280;11449;51.330;19.378;2022-08-11T09:54:24;100167.12;;;29.94;100.00
22566;BME280;11449;51.330;19.378;2022-08-11T09:59:26;100170.13;;;29.24;100.00
22566;BME280;11449;51.330;19.378;2022-08-11T10:14:56;100165.95;;;28.82;100.00
22566;BME280;11449;51.330;19.378;2022-08-11T10:20:15;100153.22;;;29.41;100.00
22566;BME280;11449;51.330;19.378;2022-08-11T10:25:18;100142.75;;;28.79;100.00
22566;BME280;11449;51.330;19.378;2022-08-11T10:30:38;100143.87;;;28.52;100.00
22566;BME280;11449;51.330;19.378;2022-08-11T10:35:58;100133.88;;;28.52;100.00
22566;BME280;11449;51.330;19.378;2022-08-11T10:41:00;100137.80;;;29.13;100.00
22566;BME280;11449;51.330;19.378;2022-08-11T10:46:21;100129.16;;;28.45;100.00
22566;BME280;11449;51.330;19.378;2022-08-11T10:51:42;100126.81;;;29.14;100.00
22566;BME280;11449;51.330;19.378;2022-08-11T10:57:02;100119.49;;;29.20;100.00
22566;BME280;11449;51.330;19.378;2022-08-11T11:02:22;100119.91;;;31.06;100.00
22566;BME280;11449;51.330;19.378;2022-08-11T11:07:31;100113.38;;;32.67;100.00
22566;BME280;11449;51.330;19.378;2022-08-11T11:12:40;100106.16;;;33.61;100.00
22566;BME280;11449;51.330;19.378;2022-08-11T11:18:06;100096.55;;;33.97;100.00
22566;BME280;11449;51.330;19.378;2022-08-11T11:23:35;100078.68;;;31.46;100.00
22566;BME280;11449;51.330;19.378;2022-08-11T11:39:16;100061.66;;;35.39;100.00
22566;BME280;11449;51.330;19.378;2022-08-11T11:44:20;100051.89;;;35.78;100.00
22566;BME280;11449;51.330;19.378;2022-08-11T11:49:25;100043.91;;;36.01;100.00
22566;BME280;11449;51.330;19.378;2022-08-11T11:54:30;100039.91;;;35.93;100.00
22566;BME280;11449;51.330;19.378;2022-08-11T11:59:33;100027.33;;;36.03;100.00
22566;BME280;11449;51.330;19.378;2022-08-11T12:04:53;100023.20;;;36.43;100.00
22566;BME280;11449;51.330;19.378;2022-08-11T12:09:55;100024.45;;;30.93;100.00
22566;BME280;11449;51.330;19.378;2022-08-11T12:14:57;100015.95;;;33.15;100.00
22566;BME280;11449;51.330;19.378;2022-08-11T12:19:58;100011.26;;;36.19;100.00
22566;BME280;11449;51.330;19.378;2022-08-11T12:25:01;100009.94;;;35.70;100.00
22566;BME280;11449;51.330;19.378;2022-08-11T12:30:21;100008.47;;;35.45;100.00
22566;BME280;11449;51.330;19.378;2022-08-11T12:35:23;99999.45;;;29.91;100.00
22566;BME280;11449;51.330;19.378;2022-08-11T12:40:25;100000.48;;;29.57;100.00
22566;BME280;11449;51.330;19.378;2022-08-11T12:45:46;99988.13;;;34.11;100.00
22566;BME280;11449;51.330;19.378;2022-08-11T12:50:51;99979.22;;;34.75;100.00
22566;BME280;11449;51.330;19.378;2022-08-11T12:56:11;99988.48;;;31.34;100.00
22566;BME280;11449;51.330;19.378;2022-08-11T13:01:31;99979.48;;;31.56;100.00
22566;BME280;11449;51.330;19.378;2022-08-11T13:06:51;99975.36;;;32.27;100.00
22566;BME280;11449;51.330;19.378;2022-08-11T13:11:52;100038.59;;;27.29;100.00
22566;BME280;11449;51.330;19.378;2022-08-11T13:17:13;100032.89;;;24.74;100.00
22566;BME280;11449;51.330;19.378;2022-08-11T13:22:25;100045.89;;;22.74;100.00
22566;BME280;11449;51.330;19.378;2022-08-11T13:27:26;100038.41;;;22.18;100.00
22566;BME280;11449;51.330;19.378;2022-08-11T13:32:28;100037.80;;;21.93;100.00
22566;BME280;11449;51.330;19.378;2022-08-11T13:37:29;100036.95;;;22.53;100.00
22566;BME280;11449;51.330;19.378;2022-08-11T13:42:31;100044.66;;;23.37;100.00
22566;BME280;11449;51.330;19.378;2022-08-11T13:47:34;100040.75;;;22.90;100.00
22566;BME280;11449;51.330;19.378;2022-08-11T13:52:37;100049.80;;;24.08;100.00
22566;BME280;11449;51.330;19.378;2022-08-11T13:57:39;100048.95;;;24.21;100.00
22566;BME280;11449;51.330;19.378;2022-08-11T14:02:43;100051.83;;;23.99;100.00
22566;BME280;11449;51.330;19.378;2022-08-11T14:07:48;100048.44;;;24.34;100.00
22566;BME280;11449;51.330;19.378;2022-08-11T14:12:58;100051.91;;;25.24;100.00
22566;BME280;11449;51.330;19.378;2022-08-11T14:18:21;100040.96;;;24.79;100.00
22566;BME280;11449;51.330;19.378;2022-08-11T14:23:32;100040.68;;;24.71;100.00
22566;BME280;11449;51.330;19.378;2022-08-11T14:28:34;100039.91;;;24.58;100.00
22566;BME280;11449;51.330;19.378;2022-08-11T14:33:39;100029.11;;;24.76;100.00
22566;BME280;11449;51.330;19.378;2022-08-11T14:38:41;100020.73;;;24.86;100.00
22566;BME280;11449;51.330;19.378;2022-08-11T14:43:43;100019.56;;;24.96;100.00
22566;BME280;11449;51.330;19.378;2022-08-11T14:49:04;100016.80;;;25.25;100.00
22566;BME280;11449;51.330;19.378;2022-08-11T14:54:06;100021.02;;;25.51;100.00
22566;BME280;11449;51.330;19.378;2022-08-11T14:59:26;100022.38;;;25.85;100.00
22566;BME280;11449;51.330;19.378;2022-08-11T15:04:28;100010.35;;;26.28;100.00
22566;BME280;11449;51.330;19.378;2022-08-11T15:09:30;100006.20;;;26.13;100.00
22566;BME280;11449;51.330;19.378;2022-08-11T15:14:31;100004.75;;;25.97;100.00
22566;BME280;11449;51.330;19.378;2022-08-11T15:19:52;100001.11;;;25.71;100.00
22566;BME280;11449;51.330;19.378;2022-08-11T15:25:13;99988.27;;;25.63;100.00
22566;BME280;11449;51.330;19.378;2022-08-11T15:30:15;99992.89;;;25.89;100.00
22566;BME280;11449;51.330;19.378;2022-08-11T15:35:35;99992.13;;;26.04;100.00
22566;BME280;11449;51.330;19.378;2022-08-11T15:40:57;99999.60;;;26.00;100.00
22566;BME280;11449;51.330;19.378;2022-08-11T15:46:33;100000.33;;;26.13;100.00
22566;BME280;11449;51.330;19.378;2022-08-11T15:51:41;99994.34;;;26.21;100.00
22566;BME280;11449;51.330;19.378;2022-08-11T15:56:47;99995.88;;;26.34;100.00
22566;BME280;11449;51.330;19.378;2022-08-11T16:01:48;99986.00;;;26.13;100.00
22566;BME280;11449;51.330;19.378;2022-08-11T16:07:11;99986.44;;;26.40;100.00
22566;BME280;11449;51.330;19.378;2022-08-11T16:12:17;99969.48;;;26.55;100.00
22566;BME280;11449;51.330;19.378;2022-08-11T16:17:19;99984.72;;;26.71;100.00
22566;BME280;11449;51.330;19.378;2022-08-11T16:22:28;99982.94;;;26.60;100.00
22566;BME280;11449;51.330;19.378;2022-08-11T16:27:42;99978.88;;;26.34;100.00
22566;BME280;11449;51.330;19.378;2022-08-11T16:32:46;99971.70;;;26.01;100.00
22566;BME280;11449;51.330;19.378;2022-08-11T16:37:52;99975.02;;;26.48;100.00
22566;BME280;11449;51.330;19.378;2022-08-11T16:43:17;99969.95;;;26.28;100.00
22566;BME280;11449;51.330;19.378;2022-08-11T16:48:40;99969.63;;;26.53;100.00
22566;BME280;11449;51.330;19.378;2022-08-11T16:53:43;99964.00;;;25.96;100.00
22566;BME280;11449;51.330;19.378;2022-08-11T16:58:51;99955.44;;;26.03;100.00
22566;BME280;11449;51.330;19.378;2022-08-11T17:04:35;99950.56;;;25.91;100.00
22566;BME280;11449;51.330;19.378;2022-08-11T17:09:59;99955.89;;;26.13;100.00
22566;BME280;11449;51.330;19.378;2022-08-11T17:15:21;99951.54;;;25.45;100.00
22566;BME280;11449;51.330;19.378;2022-08-11T17:20:42;99955.72;;;25.33;100.00
22566;BME280;11449;51.330;19.378;2022-08-11T17:25:43;99956.34;;;25.53;100.00
22566;BME280;11449;51.330;19.378;2022-08-11T17:30:49;99955.22;;;25.50;100.00
22566;BME280;11449;51.330;19.378;2022-08-11T17:36:09;99964.27;;;25.77;100.00
22566;BME280;11449;51.330;19.378;2022-08-11T17:41:11;99954.73;;;25.39;100.00
22566;BME280;11449;51.330;19.378;2022-08-11T17:46:31;99963.03;;;25.42;100.00
22566;BME280;11449;51.330;19.378;2022-08-11T17:51:53;99958.97;;;25.03;100.00
22566;BME280;11449;51.330;19.378;2022-08-11T17:57:13;99951.62;;;24.88;100.00
22566;BME280;11449;51.330;19.378;2022-08-11T18:02:37;99965.20;;;25.03;100.00
22566;BME280;11449;51.330;19.378;2022-08-11T18:07:59;99963.14;;;25.18;100.00
22566;BME280;11449;51.330;19.378;2022-08-11T18:13:22;99966.66;;;24.67;100.00
22566;BME280;11449;51.330;19.378;2022-08-11T18:18:42;99972.89;;;24.62;100.00
22566;BME280;11449;51.330;19.378;2022-08-11T18:24:05;99972.56;;;24.43;100.00
22566;BME280;11449;51.330;19.378;2022-08-11T18:29:25;99978.28;;;24.44;100.00
22566;BME280;11449;51.330;19.378;2022-08-11T18:34:46;99982.59;;;24.23;100.00
22566;BME280;11449;51.330;19.378;2022-08-11T18:40:10;99981.41;;;24.32;100.00
22566;BME280;11449;51.330;19.378;2022-08-11T18:45:30;99989.70;;;23.37;100.00
22566;BME280;11449;51.330;19.378;2022-08-11T18:50:52;99994.39;;;23.53;100.00
22566;BME280;11449;51.330;19.378;2022-08-11T18:56:14;99997.45;;;23.54;100.00
22566;BME280;11449;51.330;19.378;2022-08-11T19:01:36;100006.16;;;23.76;100.00
22566;BME280;11449;51.330;19.378;2022-08-11T19:06:57;100004.45;;;23.37;100.00
22566;BME280;11449;51.330;19.378;2022-08-11T19:12:18;100010.61;;;23.32;100.00
22566;BME280;11449;51.330;19.378;2022-08-11T19:17:40;100008.60;;;22.90;100.00
22566;BME280;11449;51.330;19.378;2022-08-11T19:23:02;100004.67;;;22.76;100.00
22566;BME280;11449;51.330;19.378;2022-08-11T19:28:23;100001.80;;;23.04;100.00
22566;BME280;11449;51.330;19.378;2022-08-11T19:33:44;99998.11;;;22.34;100.00
22566;BME280;11449;51.330;19.378;2022-08-11T19:39:05;99991.17;;;22.51;100.00
22566;BME280;11449;51.330;19.378;2022-08-11T19:44:26;100002.00;;;22.89;100.00
22566;BME280;11449;51.330;19.378;2022-08-11T19:49:48;100003.52;;;22.73;100.00
22566;BME280;11449;51.330;19.378;2022-08-11T19:55:09;100012.16;;;22.71;100.00
22566;BME280;11449;51.330;19.378;2022-08-11T20:00:29;100012.16;;;22.71;100.00
22566;BME280;11449;51.330;19.378;2022-08-11T20:05:49;99992.84;;;22.39;100.00
22566;BME280;11449;51.330;19.378;2022-08-11T20:11:11;99990.90;;;22.75;100.00
22566;BME280;11449;51.330;19.378;2022-08-11T20:16:32;99982.89;;;22.88;100.00
22566;BME280;11449;51.330;19.378;2022-08-11T20:21:57;99972.42;;;22.31;100.00
22566;BME280;11449;51.330;19.378;2022-08-11T20:27:18;99989.42;;;22.03;100.00
22566;BME280;11449;51.330;19.378;2022-08-11T20:32:39;99989.42;;;22.03;100.00
22566;BME280;11449;51.330;19.378;2022-08-11T20:38:01;99991.94;;;21.92;100.00
22566;BME280;11449;51.330;19.378;2022-08-11T20:43:22;99995.14;;;22.38;100.00
22566;BME280;11449;51.330;19.378;2022-08-11T20:48:43;99994.06;;;22.14;100.00
22566;BME280;11449;51.330;19.378;2022-08-11T20:54:05;99998.27;;;22.18;100.00
22566;BME280;11449;51.330;19.378;2022-08-11T20:59:26;99996.88;;;22.59;100.00
22566;BME280;11449;51.330;19.378;2022-08-11T21:04:47;100002.75;;;22.24;100.00
22566;BME280;11449;51.330;19.378;2022-08-11T21:10:09;99995.97;;;22.19;100.00
22566;BME280;11449;51.330;19.378;2022-08-11T21:15:30;99995.34;;;22.08;100.00
22566;BME280;11449;51.330;19.378;2022-08-11T21:20:51;99997.27;;;21.99;100.00
22566;BME280;11449;51.330;19.378;2022-08-11T21:26:15;100001.59;;;22.29;100.00
22566;BME280;11449;51.330;19.378;2022-08-11T21:31:35;100011.16;;;22.18;100.00
22566;BME280;11449;51.330;19.378;2022-08-11T21:36:58;100016.58;;;21.69;100.00
22566;BME280;11449;51.330;19.378;2022-08-11T21:42:19;100012.97;;;21.63;100.00
22566;BME280;11449;51.330;19.378;2022-08-11T21:47:40;100017.15;;;21.81;100.00
22566;BME280;11449;51.330;19.378;2022-08-11T21:53:01;100013.02;;;22.38;100.00
22566;BME280;11449;51.330;19.378;2022-08-11T21:58:20;100012.14;;;22.10;100.00
22566;BME280;11449;51.330;19.378;2022-08-11T22:03:41;99996.27;;;22.41;100.00
22566;BME280;11449;51.330;19.378;2022-08-11T22:09:02;100000.78;;;22.07;100.00
22566;BME280;11449;51.330;19.378;2022-08-11T22:14:22;100005.60;;;21.73;100.00
22566;BME280;11449;51.330;19.378;2022-08-11T22:19:42;100003.23;;;22.24;100.00
22566;BME280;11449;51.330;19.378;2022-08-11T22:25:02;99997.45;;;22.03;100.00
22566;BME280;11449;51.330;19.378;2022-08-11T22:30:22;100003.37;;;22.08;100.00
22566;BME280;11449;51.330;19.378;2022-08-11T22:35:47;99999.63;;;22.11;100.00
22566;BME280;11449;51.330;19.378;2022-08-11T22:41:07;99992.48;;;22.04;100.00
22566;BME280;11449;51.330;19.378;2022-08-11T22:46:28;99991.55;;;21.77;100.00
22566;BME280;11449;51.330;19.378;2022-08-11T22:51:49;99996.42;;;21.63;100.00
22566;BME280;11449;51.330;19.378;2022-08-11T22:57:09;99988.05;;;20.90;100.00
22566;BME280;11449;51.330;19.378;2022-08-11T23:02:28;99984.91;;;20.91;100.00
22566;BME280;11449;51.330;19.378;2022-08-11T23:07:48;99978.23;;;21.27;100.00
22566;BME280;11449;51.330;19.378;2022-08-11T23:13:08;99987.08;;;21.56;100.00
22566;BME280;11449;51.330;19.378;2022-08-11T23:18:27;99976.30;;;20.42;100.00
22566;BME280;11449;51.330;19.378;2022-08-11T23:23:48;99979.73;;;19.65;100.00
22566;BME280;11449;51.330;19.378;2022-08-11T23:29:09;99981.86;;;20.53;100.00
22566;BME280;11449;51.330;19.378;2022-08-11T23:34:35;99988.70;;;20.79;100.00
22566;BME280;11449;51.330;19.378;2022-08-11T23:39:57;99989.03;;;20.89;100.00
22566;BME280;11449;51.330;19.378;2022-08-11T23:45:16;99988.16;;;20.81;100.00
22566;BME280;11449;51.330;19.378;2022-08-11T23:50:35;99985.44;;;20.74;100.00
22566;BME280;11449;51.330;19.378;2022-08-11T23:55:55;99979.83;;;20.26;100.00
